Tamassee, South Carolina
Current Conditions -  °F | °C
As of 12:54 AM on Wednesday 28 Jan 2015 (Local Time) from KCEU Reporting Station
Clear Clear  
Wind Chill: 36°   Ceiling: Unl
Heat Index: 36°   Visibility: 10mi
Dew Point: 22°   Wind: 0mph
Humidity: 57%   Direction: NA
Pressure: 30.05"   Gusts: NA
Location:  34.88°N, 83.02°W
Report Text: KCEU 280554Z AUTO 00000KT 10SM CLR 02/M06 A3005 RMK AO2 SLP178 T00221056 10061 20022 51010
Loading
Personal Weather Stations






























Interactive Weather Map New forecast layout! Learn more

10-Day Weather Forecast

Advertisements
Track Severe Weather on mobile